sensor_id;sensor_type;location;lat;lon;timestamp;temperature;humidity
30150;DHT22;16962;48.646;9.026;2022-08-19T00:00:22;19.10;99.90
30150;DHT22;16962;48.646;9.026;2022-08-19T00:03:12;19.10;99.90
30150;DHT22;16962;48.646;9.026;2022-08-19T00:06:00;19.10;99.90
30150;DHT22;16962;48.646;9.026;2022-08-19T00:08:47;19.10;99.90
30150;DHT22;16962;48.646;9.026;2022-08-19T00:11:34;19.10;99.90
30150;DHT22;16962;48.646;9.026;2022-08-19T00:14:25;19.10;99.90
30150;DHT22;16962;48.646;9.026;2022-08-19T00:17:13;19.20;99.90
30150;DHT22;16962;48.646;9.026;2022-08-19T00:20:00;19.10;99.90
30150;DHT22;16962;48.646;9.026;2022-08-19T00:22:50;19.10;99.90
30150;DHT22;16962;48.646;9.026;2022-08-19T00:25:41;19.10;99.90
30150;DHT22;16962;48.646;9.026;2022-08-19T00:28:34;19.10;99.90
30150;DHT22;16962;48.646;9.026;2022-08-19T00:31:22;19.00;99.90
30150;DHT22;16962;48.646;9.026;2022-08-19T00:34:10;19.00;99.90
30150;DHT22;16962;48.646;9.026;2022-08-19T00:36:58;19.00;99.90
30150;DHT22;16962;48.646;9.026;2022-08-19T00:39:46;19.00;99.90
30150;DHT22;16962;48.646;9.026;2022-08-19T00:42:35;19.00;99.90
30150;DHT22;16962;48.646;9.026;2022-08-19T00:45:25;19.00;99.90
30150;DHT22;16962;48.646;9.026;2022-08-19T00:48:13;18.90;99.90
30150;DHT22;16962;48.646;9.026;2022-08-19T00:51:01;18.90;99.90
30150;DHT22;16962;48.646;9.026;2022-08-19T00:53:51;18.80;99.90
30150;DHT22;16962;48.646;9.026;2022-08-19T00:56:38;18.70;99.90
30150;DHT22;16962;48.646;9.026;2022-08-19T00:59:28;18.50;91.20
30150;DHT22;16962;48.646;9.026;2022-08-19T01:02:36;18.40;1.00
30150;DHT22;16962;48.646;9.026;2022-08-19T01:05:26;18.30;99.90
30150;DHT22;16962;48.646;9.026;2022-08-19T01:08:16;18.20;99.90
30150;DHT22;16962;48.646;9.026;2022-08-19T01:11:04;18.20;99.90
30150;DHT22;16962;48.646;9.026;2022-08-19T01:13:52;18.10;99.90
30150;DHT22;16962;48.646;9.026;2022-08-19T01:16:43;18.10;1.00
30150;DHT22;16962;48.646;9.026;2022-08-19T01:19:41;18.10;1.00
30150;DHT22;16962;48.646;9.026;2022-08-19T01:22:47;18.10;1.00
30150;DHT22;16962;48.646;9.026;2022-08-19T01:25:41;18.10;1.00
30150;DHT22;16962;48.646;9.026;2022-08-19T01:28:31;18.10;1.00
30150;DHT22;16962;48.646;9.026;2022-08-19T01:31:23;18.10;99.90
30150;DHT22;16962;48.646;9.026;2022-08-19T01:34:13;18.10;1.00
30150;DHT22;16962;48.646;9.026;2022-08-19T01:37:06;18.10;43.10
30150;DHT22;16962;48.646;9.026;2022-08-19T01:39:57;18.10;1.00
30150;DHT22;16962;48.646;9.026;2022-08-19T01:42:48;18.10;99.90
30150;DHT22;16962;48.646;9.026;2022-08-19T01:45:38;18.00;1.00
30150;DHT22;16962;48.646;9.026;2022-08-19T01:48:27;18.00;99.90
30150;DHT22;16962;48.646;9.026;2022-08-19T01:51:16;18.00;99.90
30150;DHT22;16962;48.646;9.026;2022-08-19T01:54:04;18.00;99.90
30150;DHT22;16962;48.646;9.026;2022-08-19T01:57:01;18.00;99.90
30150;DHT22;16962;48.646;9.026;2022-08-19T01:59:52;17.90;99.90
30150;DHT22;16962;48.646;9.026;2022-08-19T02:02:40;17.90;1.00
30150;DHT22;16962;48.646;9.026;2022-08-19T02:05:30;17.90;1.00
30150;DHT22;16962;48.646;9.026;2022-08-19T02:08:17;17.90;1.00
30150;DHT22;16962;48.646;9.026;2022-08-19T02:11:05;17.90;99.90
30150;DHT22;16962;48.646;9.026;2022-08-19T02:13:55;17.90;99.90
30150;DHT22;16962;48.646;9.026;2022-08-19T02:16:42;17.80;99.90
30150;DHT22;16962;48.646;9.026;2022-08-19T02:19:29;17.80;16.20
30150;DHT22;16962;48.646;9.026;2022-08-19T02:22:21;17.80;26.60
30150;DHT22;16962;48.646;9.026;2022-08-19T02:25:13;17.90;1.00
30150;DHT22;16962;48.646;9.026;2022-08-19T02:28:00;17.90;99.90
30150;DHT22;16962;48.646;9.026;2022-08-19T02:30:48;17.80;99.90
30150;DHT22;16962;48.646;9.026;2022-08-19T02:33:35;17.80;1.00
30150;DHT22;16962;48.646;9.026;2022-08-19T02:36:24;17.80;1.00
30150;DHT22;16962;48.646;9.026;2022-08-19T02:39:16;17.80;99.90
30150;DHT22;16962;48.646;9.026;2022-08-19T02:42:03;17.80;99.90
30150;DHT22;16962;48.646;9.026;2022-08-19T02:44:50;17.80;99.90
30150;DHT22;16962;48.646;9.026;2022-08-19T02:47:39;17.80;99.90
30150;DHT22;16962;48.646;9.026;2022-08-19T02:50:26;17.80;1.00
30150;DHT22;16962;48.646;9.026;2022-08-19T02:53:13;17.80;99.90
30150;DHT22;16962;48.646;9.026;2022-08-19T02:56:05;17.80;99.90
30150;DHT22;16962;48.646;9.026;2022-08-19T02:58:54;17.80;99.90
30150;DHT22;16962;48.646;9.026;2022-08-19T03:01:42;17.80;99.90
30150;DHT22;16962;48.646;9.026;2022-08-19T03:04:29;17.80;99.90
30150;DHT22;16962;48.646;9.026;2022-08-19T03:07:19;17.90;99.90
30150;DHT22;16962;48.646;9.026;2022-08-19T03:10:06;17.80;99.90
30150;DHT22;16962;48.646;9.026;2022-08-19T03:12:55;17.90;1.00
30150;DHT22;16962;48.646;9.026;2022-08-19T03:15:45;17.90;1.00
30150;DHT22;16962;48.646;9.026;2022-08-19T03:18:35;17.90;1.00
30150;DHT22;16962;48.646;9.026;2022-08-19T03:21:30;17.90;19.90
30150;DHT22;16962;48.646;9.026;2022-08-19T03:24:20;17.80;20.40
30150;DHT22;16962;48.646;9.026;2022-08-19T03:27:07;17.80;1.00
30150;DHT22;16962;48.646;9.026;2022-08-19T03:29:54;17.80;1.00
30150;DHT22;16962;48.646;9.026;2022-08-19T03:32:46;17.80;1.00
30150;DHT22;16962;48.646;9.026;2022-08-19T03:35:42;17.80;16.60
30150;DHT22;16962;48.646;9.026;2022-08-19T03:38:32;17.80;56.60
30150;DHT22;16962;48.646;9.026;2022-08-19T03:41:24;17.80;99.90
30150;DHT22;16962;48.646;9.026;2022-08-19T03:44:30;17.70;99.90
30150;DHT22;16962;48.646;9.026;2022-08-19T03:47:19;17.70;99.90
30150;DHT22;16962;48.646;9.026;2022-08-19T03:50:06;17.70;99.90
30150;DHT22;16962;48.646;9.026;2022-08-19T03:52:55;17.70;99.90
30150;DHT22;16962;48.646;9.026;2022-08-19T03:55:42;17.60;1.00
30150;DHT22;16962;48.646;9.026;2022-08-19T03:58:29;17.70;99.90
30150;DHT22;16962;48.646;9.026;2022-08-19T04:01:22;17.70;99.90
30150;DHT22;16962;48.646;9.026;2022-08-19T04:04:18;17.70;99.90
30150;DHT22;16962;48.646;9.026;2022-08-19T04:07:09;17.60;1.00
30150;DHT22;16962;48.646;9.026;2022-08-19T04:09:56;17.70;1.00
30150;DHT22;16962;48.646;9.026;2022-08-19T04:12:43;17.70;99.90
30150;DHT22;16962;48.646;9.026;2022-08-19T04:15:42;17.80;99.90
30150;DHT22;16962;48.646;9.026;2022-08-19T04:18:36;17.80;99.90
30150;DHT22;16962;48.646;9.026;2022-08-19T04:21:25;17.80;59.60
30150;DHT22;16962;48.646;9.026;2022-08-19T04:24:14;17.80;15.10
30150;DHT22;16962;48.646;9.026;2022-08-19T04:27:01;17.80;97.60
30150;DHT22;16962;48.646;9.026;2022-08-19T04:29:49;17.70;99.90
30150;DHT22;16962;48.646;9.026;2022-08-19T04:32:37;17.80;99.90
30150;DHT22;16962;48.646;9.026;2022-08-19T04:35:28;17.70;99.90
30150;DHT22;16962;48.646;9.026;2022-08-19T04:38:20;17.70;99.90
30150;DHT22;16962;48.646;9.026;2022-08-19T04:41:10;17.70;99.90
30150;DHT22;16962;48.646;9.026;2022-08-19T04:44:20;17.70;99.90
30150;DHT22;16962;48.646;9.026;2022-08-19T04:47:07;17.70;99.90
30150;DHT22;16962;48.646;9.026;2022-08-19T04:49:57;17.70;99.90
30150;DHT22;16962;48.646;9.026;2022-08-19T04:52:44;17.70;99.90
30150;DHT22;16962;48.646;9.026;2022-08-19T04:55:32;17.80;99.90
30150;DHT22;16962;48.646;9.026;2022-08-19T04:58:25;17.80;99.90
30150;DHT22;16962;48.646;9.026;2022-08-19T05:01:17;17.80;99.90
30150;DHT22;16962;48.646;9.026;2022-08-19T05:04:05;17.90;99.90
30150;DHT22;16962;48.646;9.026;2022-08-19T05:06:53;17.90;99.90
30150;DHT22;16962;48.646;9.026;2022-08-19T05:09:49;17.90;99.90
30150;DHT22;16962;48.646;9.026;2022-08-19T05:12:45;18.00;1.00
30150;DHT22;16962;48.646;9.026;2022-08-19T05:15:32;18.00;1.00
30150;DHT22;16962;48.646;9.026;2022-08-19T05:18:21;18.00;1.00
30150;DHT22;16962;48.646;9.026;2022-08-19T05:21:27;18.00;1.00
30150;DHT22;16962;48.646;9.026;2022-08-19T05:24:36;18.10;1.00
30150;DHT22;16962;48.646;9.026;2022-08-19T05:27:46;18.10;1.00
30150;DHT22;16962;48.646;9.026;2022-08-19T05:30:36;18.10;1.00
30150;DHT22;16962;48.646;9.026;2022-08-19T05:33:33;18.10;99.90
30150;DHT22;16962;48.646;9.026;2022-08-19T05:36:23;18.10;99.90
30150;DHT22;16962;48.646;9.026;2022-08-19T05:39:13;18.10;99.90
30150;DHT22;16962;48.646;9.026;2022-08-19T05:42:07;18.10;99.90
30150;DHT22;16962;48.646;9.026;2022-08-19T05:44:55;18.10;99.90
30150;DHT22;16962;48.646;9.026;2022-08-19T05:47:42;18.10;99.90
30150;DHT22;16962;48.646;9.026;2022-08-19T05:50:29;18.10;99.90
30150;DHT22;16962;48.646;9.026;2022-08-19T05:53:20;18.10;99.90
30150;DHT22;16962;48.646;9.026;2022-08-19T05:56:09;18.20;99.90
30150;DHT22;16962;48.646;9.026;2022-08-19T05:58:59;18.20;99.90
30150;DHT22;16962;48.646;9.026;2022-08-19T06:01:48;18.20;99.90
30150;DHT22;16962;48.646;9.026;2022-08-19T06:04:40;18.30;99.90
30150;DHT22;16962;48.646;9.026;2022-08-19T06:07:29;18.30;99.90
30150;DHT22;16962;48.646;9.026;2022-08-19T06:10:17;18.30;99.90
30150;DHT22;16962;48.646;9.026;2022-08-19T06:13:04;18.30;99.90
30150;DHT22;16962;48.646;9.026;2022-08-19T06:15:52;18.30;99.90
30150;DHT22;16962;48.646;9.026;2022-08-19T06:18:39;18.30;99.90
30150;DHT22;16962;48.646;9.026;2022-08-19T06:21:30;18.40;99.90
30150;DHT22;16962;48.646;9.026;2022-08-19T06:24:20;18.40;91.70
30150;DHT22;16962;48.646;9.026;2022-08-19T06:27:10;18.40;40.50
30150;DHT22;16962;48.646;9.026;2022-08-19T06:29:57;18.40;17.70
30150;DHT22;16962;48.646;9.026;2022-08-19T06:32:46;18.40;9.30
30150;DHT22;16962;48.646;9.026;2022-08-19T06:35:41;18.50;1.00
30150;DHT22;16962;48.646;9.026;2022-08-19T06:38:28;18.50;1.00
30150;DHT22;16962;48.646;9.026;2022-08-19T06:41:15;18.60;1.00
30150;DHT22;16962;48.646;9.026;2022-08-19T06:44:03;18.60;1.00
30150;DHT22;16962;48.646;9.026;2022-08-19T06:46:51;18.60;1.00
30150;DHT22;16962;48.646;9.026;2022-08-19T06:49:41;18.60;1.00
30150;DHT22;16962;48.646;9.026;2022-08-19T06:52:32;18.70;1.00
30150;DHT22;16962;48.646;9.026;2022-08-19T06:55:22;18.70;1.00
30150;DHT22;16962;48.646;9.026;2022-08-19T06:58:10;18.80;1.00
30150;DHT22;16962;48.646;9.026;2022-08-19T07:00:59;18.80;99.90
30150;DHT22;16962;48.646;9.026;2022-08-19T07:03:54;18.90;99.90
30150;DHT22;16962;48.646;9.026;2022-08-19T07:06:44;18.80;99.90
30150;DHT22;16962;48.646;9.026;2022-08-19T07:09:42;18.80;99.90
30150;DHT22;16962;48.646;9.026;2022-08-19T07:12:46;18.80;99.90
30150;DHT22;16962;48.646;9.026;2022-08-19T07:15:36;18.80;99.90
30150;DHT22;16962;48.646;9.026;2022-08-19T07:18:25;19.00;99.90
30150;DHT22;16962;48.646;9.026;2022-08-19T07:21:16;19.20;99.90
30150;DHT22;16962;48.646;9.026;2022-08-19T07:24:04;19.40;99.90
30150;DHT22;16962;48.646;9.026;2022-08-19T07:26:55;19.60;99.90
30150;DHT22;16962;48.646;9.026;2022-08-19T07:29:49;19.80;99.90
30150;DHT22;16962;48.646;9.026;2022-08-19T07:32:45;19.90;99.90
30150;DHT22;16962;48.646;9.026;2022-08-19T07:35:36;20.00;99.90
30150;DHT22;16962;48.646;9.026;2022-08-19T07:38:23;20.00;94.10
30150;DHT22;16962;48.646;9.026;2022-08-19T07:41:19;20.10;61.30
30150;DHT22;16962;48.646;9.026;2022-08-19T07:44:09;20.00;38.70
30150;DHT22;16962;48.646;9.026;2022-08-19T07:47:00;19.90;48.10
30150;DHT22;16962;48.646;9.026;2022-08-19T07:49:48;19.80;59.70
30150;DHT22;16962;48.646;9.026;2022-08-19T07:52:36;19.70;74.90
30150;DHT22;16962;48.646;9.026;2022-08-19T07:55:28;19.60;71.10
30150;DHT22;16962;48.646;9.026;2022-08-19T07:58:31;19.60;97.70
30150;DHT22;16962;48.646;9.026;2022-08-19T08:01:24;19.50;94.40
30150;DHT22;16962;48.646;9.026;2022-08-19T08:04:12;19.40;99.90
30150;DHT22;16962;48.646;9.026;2022-08-19T08:07:18;19.40;99.90
30150;DHT22;16962;48.646;9.026;2022-08-19T08:10:32;19.40;99.90
30150;DHT22;16962;48.646;9.026;2022-08-19T08:13:19;19.30;99.90
30150;DHT22;16962;48.646;9.026;2022-08-19T08:16:07;19.20;99.90
30150;DHT22;16962;48.646;9.026;2022-08-19T08:18:56;19.20;99.90
30150;DHT22;16962;48.646;9.026;2022-08-19T08:21:43;19.10;99.90
30150;DHT22;16962;48.646;9.026;2022-08-19T08:24:31;19.00;99.90
30150;DHT22;16962;48.646;9.026;2022-08-19T08:27:21;19.00;99.90
30150;DHT22;16962;48.646;9.026;2022-08-19T08:30:18;18.90;99.90
30150;DHT22;16962;48.646;9.026;2022-08-19T08:33:09;18.90;99.90
30150;DHT22;16962;48.646;9.026;2022-08-19T08:35:56;18.80;99.90
30150;DHT22;16962;48.646;9.026;2022-08-19T08:38:44;18.90;99.90
30150;DHT22;16962;48.646;9.026;2022-08-19T08:41:55;18.90;99.90
30150;DHT22;16962;48.646;9.026;2022-08-19T08:45:02;19.00;99.90
30150;DHT22;16962;48.646;9.026;2022-08-19T08:47:53;19.10;99.90
30150;DHT22;16962;48.646;9.026;2022-08-19T08:50:47;19.20;99.90
30150;DHT22;16962;48.646;9.026;2022-08-19T08:53:40;19.20;99.90
30150;DHT22;16962;48.646;9.026;2022-08-19T08:56:29;19.20;99.90
30150;DHT22;16962;48.646;9.026;2022-08-19T08:59:25;19.10;99.90
30150;DHT22;16962;48.646;9.026;2022-08-19T09:02:14;18.90;99.90
30150;DHT22;16962;48.646;9.026;2022-08-19T09:05:03;18.80;1.00
30150;DHT22;16962;48.646;9.026;2022-08-19T09:07:56;18.70;99.90
30150;DHT22;16962;48.646;9.026;2022-08-19T09:10:52;18.60;99.90
30150;DHT22;16962;48.646;9.026;2022-08-19T09:13:49;18.70;99.90
30150;DHT22;16962;48.646;9.026;2022-08-19T09:16:36;18.70;99.90
30150;DHT22;16962;48.646;9.026;2022-08-19T09:19:27;18.70;87.20
30150;DHT22;16962;48.646;9.026;2022-08-19T09:22:15;18.80;99.90
30150;DHT22;16962;48.646;9.026;2022-08-19T09:25:18;18.80;99.90
30150;DHT22;16962;48.646;9.026;2022-08-19T09:28:15;18.90;18.60
30150;DHT22;16962;48.646;9.026;2022-08-19T09:31:15;19.10;99.90
30150;DHT22;16962;48.646;9.026;2022-08-19T09:34:05;19.10;99.90
30150;DHT22;16962;48.646;9.026;2022-08-19T09:36:52;19.10;99.90
30150;DHT22;16962;48.646;9.026;2022-08-19T09:39:42;19.10;1.00
30150;DHT22;16962;48.646;9.026;2022-08-19T09:42:29;19.10;1.00
30150;DHT22;16962;48.646;9.026;2022-08-19T09:45:21;19.00;1.00
30150;DHT22;16962;48.646;9.026;2022-08-19T09:48:09;18.90;99.90
30150;DHT22;16962;48.646;9.026;2022-08-19T09:51:13;18.90;1.00
30150;DHT22;16962;48.646;9.026;2022-08-19T09:54:04;18.90;99.90
30150;DHT22;16962;48.646;9.026;2022-08-19T09:56:55;18.90;1.00
30150;DHT22;16962;48.646;9.026;2022-08-19T09:59:50;18.90;1.00
30150;DHT22;16962;48.646;9.026;2022-08-19T10:02:37;19.00;99.90
30150;DHT22;16962;48.646;9.026;2022-08-19T10:05:25;19.00;99.90
30150;DHT22;16962;48.646;9.026;2022-08-19T10:08:36;19.10;99.90
30150;DHT22;16962;48.646;9.026;2022-08-19T10:11:26;19.20;99.90
30150;DHT22;16962;48.646;9.026;2022-08-19T10:14:25;19.30;1.00
30150;DHT22;16962;48.646;9.026;2022-08-19T10:17:13;19.30;99.90
30150;DHT22;16962;48.646;9.026;2022-08-19T10:20:07;19.30;99.90
30150;DHT22;16962;48.646;9.026;2022-08-19T10:22:54;19.40;99.90
30150;DHT22;16962;48.646;9.026;2022-08-19T10:25:48;19.50;99.90
30150;DHT22;16962;48.646;9.026;2022-08-19T10:28:36;19.60;99.90
30150;DHT22;16962;48.646;9.026;2022-08-19T10:31:34;19.60;99.90
30150;DHT22;16962;48.646;9.026;2022-08-19T10:34:41;19.70;99.90
30150;DHT22;16962;48.646;9.026;2022-08-19T10:37:36;19.80;94.50
30150;DHT22;16962;48.646;9.026;2022-08-19T10:40:44;20.00;1.00
30150;DHT22;16962;48.646;9.026;2022-08-19T10:43:32;20.10;1.00
30150;DHT22;16962;48.646;9.026;2022-08-19T10:46:23;20.20;1.00
30150;DHT22;16962;48.646;9.026;2022-08-19T10:49:11;20.30;99.90
30150;DHT22;16962;48.646;9.026;2022-08-19T10:51:58;20.30;99.90
30150;DHT22;16962;48.646;9.026;2022-08-19T10:55:10;20.40;99.90
30150;DHT22;16962;48.646;9.026;2022-08-19T10:58:19;20.40;99.90
30150;DHT22;16962;48.646;9.026;2022-08-19T11:01:12;20.50;99.90
30150;DHT22;16962;48.646;9.026;2022-08-19T11:04:01;20.50;99.90
30150;DHT22;16962;48.646;9.026;2022-08-19T11:06:49;20.60;99.90
30150;DHT22;16962;48.646;9.026;2022-08-19T11:09:39;20.70;99.90
30150;DHT22;16962;48.646;9.026;2022-08-19T11:12:27;20.80;99.90
30150;DHT22;16962;48.646;9.026;2022-08-19T11:15:15;20.90;16.00
30150;DHT22;16962;48.646;9.026;2022-08-19T11:18:02;21.20;1.00
30150;DHT22;16962;48.646;9.026;2022-08-19T11:20:50;21.30;1.00
30150;DHT22;16962;48.646;9.026;2022-08-19T11:23:38;21.40;1.00
30150;DHT22;16962;48.646;9.026;2022-08-19T11:26:26;21.60;1.00
30150;DHT22;16962;48.646;9.026;2022-08-19T11:29:14;21.60;1.00
30150;DHT22;16962;48.646;9.026;2022-08-19T11:32:08;21.70;1.00
30150;DHT22;16962;48.646;9.026;2022-08-19T11:34:56;21.70;1.00
30150;DHT22;16962;48.646;9.026;2022-08-19T11:37:43;21.70;99.90
30150;DHT22;16962;48.646;9.026;2022-08-19T11:40:30;21.60;99.90
30150;DHT22;16962;48.646;9.026;2022-08-19T11:43:18;21.60;99.90
30150;DHT22;16962;48.646;9.026;2022-08-19T11:46:09;21.60;99.90
30150;DHT22;16962;48.646;9.026;2022-08-19T11:49:00;21.60;99.90
30150;DHT22;16962;48.646;9.026;2022-08-19T11:51:49;21.60;99.90
30150;DHT22;16962;48.646;9.026;2022-08-19T11:54:39;21.60;99.90
30150;DHT22;16962;48.646;9.026;2022-08-19T11:57:27;21.70;99.90
30150;DHT22;16962;48.646;9.026;2022-08-19T12:00:14;21.70;99.90
30150;DHT22;16962;48.646;9.026;2022-08-19T12:03:02;21.70;99.90
30150;DHT22;16962;48.646;9.026;2022-08-19T12:05:50;21.70;99.90
30150;DHT22;16962;48.646;9.026;2022-08-19T12:08:38;21.60;99.90
30150;DHT22;16962;48.646;9.026;2022-08-19T12:11:25;21.60;99.90
30150;DHT22;16962;48.646;9.026;2022-08-19T12:14:22;21.70;99.90
30150;DHT22;16962;48.646;9.026;2022-08-19T12:17:11;21.80;99.90
30150;DHT22;16962;48.646;9.026;2022-08-19T12:20:03;21.80;99.90
30150;DHT22;16962;48.646;9.026;2022-08-19T12:22:53;21.80;99.90
30150;DHT22;16962;48.646;9.026;2022-08-19T12:25:45;21.80;99.90
30150;DHT22;16962;48.646;9.026;2022-08-19T12:28:38;21.90;99.90
30150;DHT22;16962;48.646;9.026;2022-08-19T12:31:29;21.80;99.90
30150;DHT22;16962;48.646;9.026;2022-08-19T12:34:19;21.90;99.90
30150;DHT22;16962;48.646;9.026;2022-08-19T12:37:10;22.10;99.90
30150;DHT22;16962;48.646;9.026;2022-08-19T12:40:00;22.50;99.90
30150;DHT22;16962;48.646;9.026;2022-08-19T12:42:47;22.80;99.90
30150;DHT22;16962;48.646;9.026;2022-08-19T12:45:36;23.00;99.90
30150;DHT22;16962;48.646;9.026;2022-08-19T12:48:29;23.20;99.90
30150;DHT22;16962;48.646;9.026;2022-08-19T12:51:20;23.30;99.90
30150;DHT22;16962;48.646;9.026;2022-08-19T12:54:08;23.20;99.90
30150;DHT22;16962;48.646;9.026;2022-08-19T12:56:55;23.00;99.90
30150;DHT22;16962;48.646;9.026;2022-08-19T12:59:43;22.90;99.90
30150;DHT22;16962;48.646;9.026;2022-08-19T13:02:30;22.70;99.90
30150;DHT22;16962;48.646;9.026;2022-08-19T13:05:30;22.50;99.90
30150;DHT22;16962;48.646;9.026;2022-08-19T13:08:20;22.40;99.90
30150;DHT22;16962;48.646;9.026;2022-08-19T13:11:14;22.40;99.90
30150;DHT22;16962;48.646;9.026;2022-08-19T13:14:04;22.30;99.90
30150;DHT22;16962;48.646;9.026;2022-08-19T13:16:54;22.40;99.90
30150;DHT22;16962;48.646;9.026;2022-08-19T13:19:42;22.40;99.90
30150;DHT22;16962;48.646;9.026;2022-08-19T13:22:29;22.50;99.90
30150;DHT22;16962;48.646;9.026;2022-08-19T13:25:17;22.60;99.90
30150;DHT22;16962;48.646;9.026;2022-08-19T13:28:06;22.50;99.40
30150;DHT22;16962;48.646;9.026;2022-08-19T13:30:53;22.50;92.10
30150;DHT22;16962;48.646;9.026;2022-08-19T13:33:59;22.60;95.40
30150;DHT22;16962;48.646;9.026;2022-08-19T13:36:46;22.70;90.30
30150;DHT22;16962;48.646;9.026;2022-08-19T13:39:36;22.80;94.50
30150;DHT22;16962;48.646;9.026;2022-08-19T13:42:23;22.80;99.90
30150;DHT22;16962;48.646;9.026;2022-08-19T13:45:14;22.20;99.90
30150;DHT22;16962;48.646;9.026;2022-08-19T13:48:06;21.90;99.90
30150;DHT22;16962;48.646;9.026;2022-08-19T13:50:57;21.70;99.90
30150;DHT22;16962;48.646;9.026;2022-08-19T13:53:47;21.60;99.90
30150;DHT22;16962;48.646;9.026;2022-08-19T13:56:42;21.50;99.90
30150;DHT22;16962;48.646;9.026;2022-08-19T13:59:30;21.40;99.90
30150;DHT22;16962;48.646;9.026;2022-08-19T14:02:18;21.20;99.90
30150;DHT22;16962;48.646;9.026;2022-08-19T14:05:08;21.10;1.00
30150;DHT22;16962;48.646;9.026;2022-08-19T14:07:55;21.50;1.00
30150;DHT22;16962;48.646;9.026;2022-08-19T14:10:43;21.70;1.00
30150;DHT22;16962;48.646;9.026;2022-08-19T14:13:33;21.80;1.00
30150;DHT22;16962;48.646;9.026;2022-08-19T14:16:24;21.80;1.00
30150;DHT22;16962;48.646;9.026;2022-08-19T14:19:11;21.80;99.90
30150;DHT22;16962;48.646;9.026;2022-08-19T14:21:58;21.70;99.90
30150;DHT22;16962;48.646;9.026;2022-08-19T14:24:46;21.60;1.00
30150;DHT22;16962;48.646;9.026;2022-08-19T14:27:38;21.70;1.00
30150;DHT22;16962;48.646;9.026;2022-08-19T14:30:31;22.20;1.00
30150;DHT22;16962;48.646;9.026;2022-08-19T14:33:21;22.20;99.90
30150;DHT22;16962;48.646;9.026;2022-08-19T14:36:17;22.00;99.90
30150;DHT22;16962;48.646;9.026;2022-08-19T14:39:05;21.80;99.90
30150;DHT22;16962;48.646;9.026;2022-08-19T14:41:54;21.60;99.90
30150;DHT22;16962;48.646;9.026;2022-08-19T14:44:42;21.70;99.90
30150;DHT22;16962;48.646;9.026;2022-08-19T14:47:58;21.50;1.00
30150;DHT22;16962;48.646;9.026;2022-08-19T14:50:47;21.50;1.00
30150;DHT22;16962;48.646;9.026;2022-08-19T14:53:35;21.40;1.00
30150;DHT22;16962;48.646;9.026;2022-08-19T14:56:25;21.60;1.00
30150;DHT22;16962;48.646;9.026;2022-08-19T14:59:17;21.60;1.00
30150;DHT22;16962;48.646;9.026;2022-08-19T15:02:06;21.70;1.00
30150;DHT22;16962;48.646;9.026;2022-08-19T15:05:13;21.60;1.00
30150;DHT22;16962;48.646;9.026;2022-08-19T15:08:03;21.50;1.00
30150;DHT22;16962;48.646;9.026;2022-08-19T15:10:53;21.50;1.00
30150;DHT22;16962;48.646;9.026;2022-08-19T15:13:41;21.60;1.00
30150;DHT22;16962;48.646;9.026;2022-08-19T15:16:28;21.70;1.00
30150;DHT22;16962;48.646;9.026;2022-08-19T15:19:16;21.90;1.00
30150;DHT22;16962;48.646;9.026;2022-08-19T15:22:03;22.00;1.00
30150;DHT22;16962;48.646;9.026;2022-08-19T15:24:50;22.10;1.00
30150;DHT22;16962;48.646;9.026;2022-08-19T15:27:38;22.30;1.00
30150;DHT22;16962;48.646;9.026;2022-08-19T15:30:31;22.40;99.90
30150;DHT22;16962;48.646;9.026;2022-08-19T15:33:20;22.60;99.90
30150;DHT22;16962;48.646;9.026;2022-08-19T15:36:08;22.80;99.90
30150;DHT22;16962;48.646;9.026;2022-08-19T15:39:00;23.30;99.90
30150;DHT22;16962;48.646;9.026;2022-08-19T15:41:51;23.90;99.90
30150;DHT22;16962;48.646;9.026;2022-08-19T15:44:38;24.60;77.20
30150;DHT22;16962;48.646;9.026;2022-08-19T15:47:30;25.40;6.70
30150;DHT22;16962;48.646;9.026;2022-08-19T15:50:21;25.90;1.00
30150;DHT22;16962;48.646;9.026;2022-08-19T15:53:10;26.80;1.00
30150;DHT22;16962;48.646;9.026;2022-08-19T15:55:57;27.60;1.00
30150;DHT22;16962;48.646;9.026;2022-08-19T15:58:47;28.10;1.00
30150;DHT22;16962;48.646;9.026;2022-08-19T16:01:52;28.40;1.00
30150;DHT22;16962;48.646;9.026;2022-08-19T16:04:59;28.60;1.00
30150;DHT22;16962;48.646;9.026;2022-08-19T16:08:04;28.60;1.00
30150;DHT22;16962;48.646;9.026;2022-08-19T16:10:52;28.30;1.00
30150;DHT22;16962;48.646;9.026;2022-08-19T16:13:41;27.70;1.00
30150;DHT22;16962;48.646;9.026;2022-08-19T16:16:31;27.30;1.00
30150;DHT22;16962;48.646;9.026;2022-08-19T16:19:20;27.30;1.00
30150;DHT22;16962;48.646;9.026;2022-08-19T16:22:07;26.90;1.00
30150;DHT22;16962;48.646;9.026;2022-08-19T16:24:57;26.50;1.00
30150;DHT22;16962;48.646;9.026;2022-08-19T16:27:45;26.20;1.00
30150;DHT22;16962;48.646;9.026;2022-08-19T16:30:53;26.10;1.00
30150;DHT22;16962;48.646;9.026;2022-08-19T16:33:40;25.80;1.00
30150;DHT22;16962;48.646;9.026;2022-08-19T16:36:30;25.40;1.00
30150;DHT22;16962;48.646;9.026;2022-08-19T16:39:20;25.10;1.00
30150;DHT22;16962;48.646;9.026;2022-08-19T16:42:12;25.00;1.00
30150;DHT22;16962;48.646;9.026;2022-08-19T16:44:59;24.80;1.00
30150;DHT22;16962;48.646;9.026;2022-08-19T16:47:47;24.60;1.00
30150;DHT22;16962;48.646;9.026;2022-08-19T16:50:34;24.50;1.00
30150;DHT22;16962;48.646;9.026;2022-08-19T16:53:36;24.30;1.00
30150;DHT22;16962;48.646;9.026;2022-08-19T16:56:24;24.10;1.00
30150;DHT22;16962;48.646;9.026;2022-08-19T16:59:12;24.00;1.00
30150;DHT22;16962;48.646;9.026;2022-08-19T17:02:00;23.80;1.00
30150;DHT22;16962;48.646;9.026;2022-08-19T17:04:48;23.70;1.00
30150;DHT22;16962;48.646;9.026;2022-08-19T17:07:50;23.40;1.00
30150;DHT22;16962;48.646;9.026;2022-08-19T17:11:15;23.30;1.00
30150;DHT22;16962;48.646;9.026;2022-08-19T17:14:08;23.20;1.00
30150;DHT22;16962;48.646;9.026;2022-08-19T17:16:56;23.10;1.00
30150;DHT22;16962;48.646;9.026;2022-08-19T17:19:56;23.10;1.00
30150;DHT22;16962;48.646;9.026;2022-08-19T17:22:50;23.00;1.00
30150;DHT22;16962;48.646;9.026;2022-08-19T17:25:39;22.90;1.00
30150;DHT22;16962;48.646;9.026;2022-08-19T17:28:28;22.90;1.00
30150;DHT22;16962;48.646;9.026;2022-08-19T17:32:05;22.90;1.00
30150;DHT22;16962;48.646;9.026;2022-08-19T17:34:53;22.80;1.00
30150;DHT22;16962;48.646;9.026;2022-08-19T17:37:41;22.80;1.00
30150;DHT22;16962;48.646;9.026;2022-08-19T17:40:29;22.80;1.00
30150;DHT22;16962;48.646;9.026;2022-08-19T17:43:17;22.80;1.00
30150;DHT22;16962;48.646;9.026;2022-08-19T17:46:20;22.80;1.00
30150;DHT22;16962;48.646;9.026;2022-08-19T17:49:12;22.80;1.00
30150;DHT22;16962;48.646;9.026;2022-08-19T17:52:00;22.80;1.00
30150;DHT22;16962;48.646;9.026;2022-08-19T17:54:51;22.80;1.00
30150;DHT22;16962;48.646;9.026;2022-08-19T17:57:49;22.80;1.00
30150;DHT22;16962;48.646;9.026;2022-08-19T18:01:00;22.80;1.00
30150;DHT22;16962;48.646;9.026;2022-08-19T18:04:15;22.70;1.00
30150;DHT22;16962;48.646;9.026;2022-08-19T18:07:03;22.60;1.00